Time;durP1;ratioP1;P1;durP2;ratioP2;P2;SDS_P1;SDS_P2;PMS_P1;PMS_P2;Temp;Humidity;BMP_temperature;BMP_pressure;BME280_temperature;BME280_humidity;BME280_pressure;Samples;Min_cycle;Max_cycle;Signal;HPM_P1;HPM_P2
2023/02/22 00:01:21;;;;;;;14.07;1.93;;;;;;;8.25;97.51;101208.56;5033011;28;20850;-68
2023/02/22 00:03:51;;;;;;;10.77;2.43;;;;;;;8.23;97.95;101205.31;5032641;28;20831;-69
2023/02/22 00:06:23;;;;;;;13.43;2.43;;;;;;;8.22;97.30;101201.00;5032864;28;20516;-69
2023/02/22 00:08:51;;;;;;;6.43;1.90;;;;;;;8.16;97.61;101202.91;5032718;28;20445;-69
2023/02/22 00:11:19;;;;;;;7.43;1.90;;;;;;;8.12;97.97;101199.09;5032594;28;20451;-68
2023/02/22 00:13:46;;;;;;;9.10;1.83;;;;;;;8.14;98.52;101194.25;5032727;28;20490;-68
2023/02/22 00:16:15;;;;;;;5.97;1.90;;;;;;;8.08;98.46;101201.53;5032496;28;20482;-69
2023/02/22 00:18:43;;;;;;;8.67;1.87;;;;;;;8.11;98.50;101204.78;5032469;28;20924;-69
2023/02/22 00:21:12;;;;;;;8.80;1.90;;;;;;;8.13;98.54;101202.63;5032743;28;20442;-69
2023/02/22 00:23:45;;;;;;;7.63;1.63;;;;;;;8.17;99.13;101196.41;5032499;28;20490;-69
2023/02/22 00:26:12;;;;;;;6.03;1.90;;;;;;;8.15;99.11;101195.06;5032821;28;20427;-69
2023/02/22 00:28:41;;;;;;;10.17;2.20;;;;;;;8.17;99.34;101196.41;5032571;28;20529;-69
2023/02/22 00:31:08;;;;;;;5.60;1.30;;;;;;;8.14;99.45;101202.34;5032795;28;20455;-69
2023/02/22 00:33:35;;;;;;;9.57;1.53;;;;;;;8.12;99.91;101198.31;5032328;28;20487;-69
2023/02/22 00:36:02;;;;;;;12.33;1.77;;;;;;;8.14;100.00;101186.16;5032199;28;20945;-69
2023/02/22 00:38:30;;;;;;;9.73;1.70;;;;;;;8.18;100.00;101187.22;5032180;28;20963;-69
2023/02/22 00:40:57;;;;;;;5.80;1.47;;;;;;;8.17;100.00;101188.31;5032621;28;20530;-69
2023/02/22 00:43:25;;;;;;;10.73;2.00;;;;;;;8.10;100.00;101190.47;5032234;28;20491;-69
2023/02/22 00:45:52;;;;;;;17.73;2.40;;;;;;;8.12;100.00;101190.22;5032270;28;20944;-69
2023/02/22 00:48:20;;;;;;;9.40;2.70;;;;;;;8.15;100.00;101187.78;5032576;28;20470;-69
2023/02/22 00:50:47;;;;;;;5.03;1.20;;;;;;;8.15;100.00;101182.41;5032507;28;20522;-69
2023/02/22 00:53:15;;;;;;;12.53;2.13;;;;;;;8.13;100.00;101187.22;5033460;28;20486;-69
2023/02/22 00:55:43;;;;;;;11.67;2.40;;;;;;;8.08;100.00;101188.03;5036027;28;20874;-69
2023/02/22 00:58:11;;;;;;;11.13;2.10;;;;;;;8.05;100.00;101187.75;5036007;28;20526;-69
2023/02/22 01:00:41;;;;;;;7.50;1.93;;;;;;;8.02;100.00;101191.03;5035916;28;20828;-69
2023/02/22 01:03:09;;;;;;;8.30;1.70;;;;;;;7.98;100.00;101193.44;5035821;28;20459;-69
2023/02/22 01:05:37;;;;;;;5.77;1.80;;;;;;;8.03;100.00;101192.63;5035772;28;20431;-69
2023/02/22 01:08:06;;;;;;;10.70;2.60;;;;;;;8.09;100.00;101194.25;5035768;28;20493;-69
2023/02/22 01:10:33;;;;;;;8.00;1.93;;;;;;;8.09;100.00;101191.53;5035760;28;20443;-69
2023/02/22 01:13:03;;;;;;;13.77;2.23;;;;;;;8.01;100.00;101192.06;5035190;28;20498;-69
2023/02/22 01:15:31;;;;;;;9.40;1.93;;;;;;;7.99;100.00;101191.53;5035437;28;20901;-69
2023/02/22 01:17:59;;;;;;;18.27;1.93;;;;;;;8.01;100.00;101192.06;5035602;28;20496;-69
2023/02/22 01:20:28;;;;;;;12.20;1.80;;;;;;;7.98;100.00;101193.44;5035549;28;20436;-70
2023/02/22 01:22:56;;;;;;;8.40;2.20;;;;;;;7.97;100.00;101186.44;5035142;28;20505;-70
2023/02/22 01:25:24;;;;;;;9.50;2.20;;;;;;;7.92;100.00;101183.72;5035515;28;20438;-70
2023/02/22 01:27:51;;;;;;;18.23;2.43;;;;;;;7.93;100.00;101179.16;5035495;28;20518;-69
2023/02/22 01:30:21;;;;;;;8.10;2.67;;;;;;;7.93;100.00;101179.16;5035386;28;20450;-70
2023/02/22 01:33:01;;;;;;;9.33;2.03;;;;;;;7.90;100.00;101179.69;5035108;28;20451;-70
2023/02/22 01:35:30;;;;;;;5.83;2.10;;;;;;;7.84;100.00;101178.88;5034947;28;20868;-70
2023/02/22 01:37:57;;;;;;;5.90;1.57;;;;;;;7.74;100.00;101171.53;5035313;28;20439;-70
2023/02/22 01:40:29;;;;;;;6.60;2.20;;;;;;;7.76;100.00;101174.00;5035203;28;20462;-70
2023/02/22 01:42:58;;;;;;;6.03;1.67;;;;;;;7.73;100.00;101174.53;5034862;28;20467;-70
2023/02/22 01:45:53;;;;;;;10.37;1.87;;;;;;;7.79;100.00;101168.88;5035137;28;20461;-70
2023/02/22 01:48:26;;;;;;;7.83;1.80;;;;;;;7.78;100.00;101177.22;5031650;28;20523;-69
2023/02/22 01:50:56;;;;;;;9.30;2.37;;;;;;;7.76;100.00;101169.41;5035073;28;20455;-68
2023/02/22 01:53:27;;;;;;;11.17;2.10;;;;;;;7.77;100.00;101175.59;5034622;28;20493;-69
2023/02/22 01:55:55;;;;;;;7.50;2.47;;;;;;;7.76;100.00;101176.69;5035039;28;20515;-69
2023/02/22 01:58:24;;;;;;;9.93;2.37;;;;;;;7.69;100.00;101173.44;5034911;28;20447;-69
2023/02/22 02:00:53;;;;;;;18.03;3.77;;;;;;;7.68;100.00;101169.94;5034820;28;20438;-69
2023/02/22 02:03:26;;;;;;;6.60;2.17;;;;;;;7.68;100.00;101175.31;5034703;28;20463;-70
2023/02/22 02:05:56;;;;;;;13.90;2.33;;;;;;;7.58;100.00;101161.84;5034013;28;20781;-69
2023/02/22 02:08:34;;;;;;;13.33;2.37;;;;;;;7.63;100.00;101159.13;5034370;28;20451;-69
2023/02/22 02:11:02;;;;;;;11.90;2.60;;;;;;;7.62;100.00;101159.41;5034671;28;20424;-69
2023/02/22 02:13:29;;;;;;;13.73;2.50;;;;;;;7.57;100.00;101158.34;5034405;28;20506;-70
2023/02/22 02:15:57;;;;;;;10.40;2.27;;;;;;;7.52;100.00;101152.91;5034518;28;20450;-69
2023/02/22 02:18:26;;;;;;;10.90;1.90;;;;;;;7.48;100.00;101164.47;5034207;28;20886;-68
2023/02/22 02:21:12;;;;;;;12.67;2.30;;;;;;;7.39;100.00;101152.59;5034431;28;20532;-69
2023/02/22 02:24:02;;;;;;;11.53;2.50;;;;;;;7.30;100.00;101153.16;5033882;28;21018;-69
2023/02/22 02:26:49;;;;;;;17.50;2.10;;;;;;;7.16;100.00;101152.00;5034272;28;20438;-69
2023/02/22 02:29:50;;;;;;;9.60;1.80;;;;;;;7.08;100.00;101152.50;5034071;28;20905;-70
2023/02/22 02:32:31;;;;;;;7.40;2.10;;;;;;;7.08;100.00;101149.81;5034239;28;20530;-70
2023/02/22 02:35:06;;;;;;;7.60;1.60;;;;;;;7.01;100.00;101157.34;5034137;28;20566;-70
2023/02/22 02:37:41;;;;;;;9.93;2.53;;;;;;;6.94;100.00;101149.47;5034209;28;20434;-70
2023/02/22 02:40:16;;;;;;;8.53;2.00;;;;;;;6.73;100.00;101156.66;5034104;28;20423;-70
2023/02/22 02:42:53;;;;;;;9.63;2.20;;;;;;;6.58;100.00;101148.50;5033679;28;20485;-70
2023/02/22 02:45:26;;;;;;;11.67;2.57;;;;;;;6.55;100.00;101147.16;5033723;28;20904;-70
2023/02/22 02:47:57;;;;;;;9.23;2.40;;;;;;;6.43;100.00;101148.41;5033654;28;20431;-70
2023/02/22 02:50:29;;;;;;;12.10;1.97;;;;;;;6.45;100.00;101151.63;5033936;28;20501;-70
2023/02/22 02:52:59;;;;;;;5.07;1.43;;;;;;;6.51;100.00;101142.53;5033818;28;20463;-70
2023/02/22 02:55:28;;;;;;;5.10;1.13;;;;;;;6.53;100.00;101145.78;5033816;28;20588;-70
2023/02/22 02:57:54;;;;;;;23.70;2.73;;;;;;;6.43;100.00;101149.22;5033821;28;20443;-70
2023/02/22 03:00:27;;;;;;;7.13;1.70;;;;;;;6.49;100.00;101150.88;5033421;28;20455;-70
2023/02/22 03:03:11;;;;;;;10.63;2.07;;;;;;;6.52;100.00;101144.16;5033608;28;20537;-70
2023/02/22 03:05:52;;;;;;;5.43;1.37;;;;;;;6.54;100.00;101134.75;5033611;28;20525;-70
2023/02/22 03:08:28;;;;;;;5.93;1.47;;;;;;;6.51;100.00;101134.47;5033401;28;20435;-70
2023/02/22 03:11:03;;;;;;;14.67;1.60;;;;;;;6.49;100.00;101144.66;5033344;28;20430;-70
2023/02/22 03:13:39;;;;;;;9.57;2.23;;;;;;;6.51;100.00;101132.59;5033442;28;20465;-70
2023/02/22 03:16:16;;;;;;;8.57;1.37;;;;;;;6.46;100.00;101137.09;5033524;28;20521;-70
2023/02/22 03:18:51;;;;;;;9.80;2.17;;;;;;;6.49;100.00;101153.56;5033096;28;20416;-69
2023/02/22 03:21:25;;;;;;;10.30;2.73;;;;;;;6.47;100.00;101144.13;5033159;28;20844;-69
2023/02/22 03:24:04;;;;;;;7.13;1.40;;;;;;;6.55;100.00;101141.75;5033006;28;20589;-69
2023/02/22 03:26:35;;;;;;;9.80;1.57;;;;;;;6.68;100.00;101136.97;5033028;28;20939;-70
2023/02/22 03:29:05;;;;;;;6.07;2.07;;;;;;;6.62;100.00;101132.63;5033405;28;20434;-69
2023/02/22 03:31:37;;;;;;;6.77;1.40;;;;;;;6.58;100.00;101140.41;5032964;28;20479;-69
2023/02/22 03:34:11;;;;;;;7.17;1.83;;;;;;;6.70;100.00;101135.66;5033158;28;20586;-69
2023/02/22 03:36:42;;;;;;;4.77;1.30;;;;;;;6.75;100.00;101129.47;5033696;28;20481;-69
2023/02/22 03:39:14;;;;;;;10.00;1.63;;;;;;;6.72;100.00;101138.88;5033361;28;20442;-69
2023/02/22 03:41:44;;;;;;;12.57;1.80;;;;;;;6.77;100.00;101143.47;5033028;28;20431;-69
2023/02/22 03:44:14;;;;;;;13.13;1.87;;;;;;;6.82;100.00;101138.94;5032779;28;20464;-69
2023/02/22 03:46:42;;;;;;;9.87;1.93;;;;;;;6.88;100.00;101141.66;5033097;28;20439;-69
2023/02/22 03:49:18;;;;;;;8.13;2.10;;;;;;;6.85;100.00;101145.66;5033099;28;20449;-69
2023/02/22 03:51:45;;;;;;;8.53;1.60;;;;;;;6.82;100.00;101149.72;5033128;28;20431;-69
2023/02/22 03:54:15;;;;;;;8.70;2.40;;;;;;;6.86;100.00;101143.78;5032943;28;20882;-69
2023/02/22 03:56:46;;;;;;;9.73;1.80;;;;;;;6.89;100.00;101138.69;5032983;28;20447;-70
2023/02/22 03:59:13;;;;;;;6.20;1.50;;;;;;;6.81;100.00;101141.88;5033080;28;20438;-69
2023/02/22 04:01:40;;;;;;;15.03;2.00;;;;;;;6.76;100.00;101142.66;5032934;28;20501;-69
2023/02/22 04:04:06;;;;;;;11.20;2.00;;;;;;;6.73;100.00;101140.53;5032577;28;20469;-69
2023/02/22 04:06:34;;;;;;;6.43;1.83;;;;;;;6.63;100.00;101139.63;5032565;28;21033;-69
2023/02/22 04:09:01;;;;;;;9.50;2.20;;;;;;;6.64;100.00;101142.09;5032886;28;20881;-69
2023/02/22 04:11:27;;;;;;;5.77;1.40;;;;;;;6.67;100.00;101141.53;5032553;28;20959;-69
2023/02/22 04:13:54;;;;;;;8.30;1.80;;;;;;;6.70;100.00;101140.22;5032769;28;20826;-69
2023/02/22 04:16:21;;;;;;;20.90;2.67;;;;;;;6.67;100.00;101138.84;5032506;28;20960;-69
2023/02/22 04:18:47;;;;;;;5.90;1.17;;;;;;;6.57;100.00;101141.50;5032523;28;20968;-69
2023/02/22 04:21:14;;;;;;;7.07;1.83;;;;;;;6.49;100.00;101137.41;5032491;28;20435;-69
2023/02/22 04:23:42;;;;;;;10.07;2.57;;;;;;;6.45;100.00;101139.00;5032143;28;20501;-69
2023/02/22 04:26:09;;;;;;;6.20;1.87;;;;;;;6.46;100.00;101135.25;5032811;28;20522;-69
2023/02/22 04:28:36;;;;;;;7.80;1.77;;;;;;;6.50;100.00;101138.22;5034134;28;20818;-69
2023/02/22 04:31:02;;;;;;;7.60;1.97;;;;;;;6.47;100.00;101142.25;5036454;28;20449;-69
2023/02/22 04:33:29;;;;;;;10.00;1.50;;;;;;;6.41;100.00;101142.47;5036438;28;20463;-69
2023/02/22 04:35:56;;;;;;;7.60;1.83;;;;;;;6.29;100.00;101140.78;5036332;28;20483;-69
2023/02/22 04:38:24;;;;;;;6.10;1.57;;;;;;;6.24;100.00;101135.38;5036380;28;20438;-69
2023/02/22 04:40:53;;;;;;;9.47;2.07;;;;;;;6.24;100.00;101137.22;5036299;28;20435;-69
2023/02/22 04:43:20;;;;;;;14.97;2.20;;;;;;;6.29;100.00;101132.72;5035926;28;21027;-68
2023/02/22 04:45:47;;;;;;;7.00;2.00;;;;;;;6.29;100.00;101146.16;5035935;28;20940;-69
2023/02/22 04:48:13;;;;;;;7.77;2.00;;;;;;;6.28;100.00;101147.22;5036163;28;20447;-69
2023/02/22 04:50:40;;;;;;;10.60;1.73;;;;;;;6.35;100.00;101138.13;5036160;28;20522;-69
2023/02/22 04:53:07;;;;;;;8.57;1.50;;;;;;;6.32;100.00;101129.50;5036013;28;20553;-69
2023/02/22 04:55:34;;;;;;;7.73;1.80;;;;;;;6.25;100.00;101136.19;5035654;28;20999;-69
2023/02/22 04:58:01;;;;;;;8.40;1.60;;;;;;;6.34;100.00;101136.50;5035735;28;20442;-69
2023/02/22 05:00:28;;;;;;;9.00;1.70;;;;;;;6.34;100.00;101133.81;5036031;28;20443;-70
2023/02/22 05:02:55;;;;;;;5.63;1.47;;;;;;;6.41;100.00;101143.28;5035872;28;20467;-69
2023/02/22 05:05:22;;;;;;;12.30;1.53;;;;;;;6.51;100.00;101134.47;5035883;28;20449;-69
2023/02/22 05:07:49;;;;;;;10.40;1.70;;;;;;;6.51;100.00;101134.47;5035532;28;20818;-69
2023/02/22 05:10:16;;;;;;;5.13;1.20;;;;;;;6.51;100.00;101129.09;5035813;28;20538;-68
2023/02/22 05:12:43;;;;;;;9.07;1.83;;;;;;;6.47;100.00;101123.41;5035717;28;20439;-69
2023/02/22 05:15:16;;;;;;;6.70;1.60;;;;;;;6.45;100.00;101120.16;5035633;28;20490;-69
2023/02/22 05:17:43;;;;;;;22.43;1.93;;;;;;;6.42;100.00;101122.56;5035673;28;20427;-69
2023/02/22 05:20:17;;;;;;;5.57;1.50;;;;;;;6.50;100.00;101124.75;5035579;28;20450;-69
2023/02/22 05:22:44;;;;;;;6.50;1.53;;;;;;;6.56;100.00;101118.34;5035357;28;20478;-69
2023/02/22 05:25:10;;;;;;;6.80;1.30;;;;;;;6.58;100.00;101124.28;5035809;28;20490;-69
2023/02/22 05:27:37;;;;;;;7.23;1.77;;;;;;;6.56;100.00;101119.16;5035181;28;20447;-69
2023/02/22 05:30:07;;;;;;;5.97;1.50;;;;;;;6.60;100.00;101124.84;5035122;28;20967;-69
2023/02/22 05:32:35;;;;;;;6.20;1.27;;;;;;;6.58;100.00;101116.19;5035236;28;20799;-69
2023/02/22 05:35:02;;;;;;;5.97;1.50;;;;;;;6.53;100.00;101124.25;5035269;28;20566;-69
2023/02/22 05:37:29;;;;;;;6.87;1.80;;;;;;;6.63;100.00;101128.88;5035299;28;20449;-69
2023/02/22 05:39:55;;;;;;;7.40;2.00;;;;;;;6.63;100.00;101120.78;5034012;28;20474;-69
2023/02/22 05:42:22;;;;;;;8.10;1.57;;;;;;;6.66;100.00;101126.47;5035206;28;20450;-69
2023/02/22 05:44:48;;;;;;;18.77;2.40;;;;;;;6.63;100.00;101126.19;5035027;28;20455;-69
2023/02/22 05:47:15;;;;;;;6.77;1.53;;;;;;;6.62;100.00;101133.44;5035154;28;20530;-69
2023/02/22 05:49:43;;;;;;;7.70;2.23;;;;;;;6.72;100.00;101136.19;5034708;28;21019;-69
2023/02/22 05:52:09;;;;;;;8.70;1.80;;;;;;;6.62;100.00;101136.13;5034961;28;20530;-69
2023/02/22 05:54:36;;;;;;;6.93;1.87;;;;;;;6.69;100.00;101135.91;5034716;28;20470;-69
2023/02/22 05:57:03;;;;;;;7.17;1.63;;;;;;;6.70;100.00;101130.25;5034979;28;20534;-69
2023/02/22 05:59:29;;;;;;;10.63;2.20;;;;;;;6.71;100.00;101131.88;5034853;28;20449;-69
2023/02/22 06:01:56;;;;;;;4.77;1.10;;;;;;;6.76;100.00;101137.28;5035046;28;20443;-69
2023/02/22 06:04:23;;;;;;;8.00;1.60;;;;;;;6.80;100.00;101138.38;5034459;28;20673;-65
2023/02/22 06:06:50;;;;;;;9.90;1.43;;;;;;;6.81;100.00;101148.06;5034402;28;20447;-67
2023/02/22 06:09:17;;;;;;;13.50;1.47;;;;;;;6.79;100.00;101139.47;5034935;28;20443;-67
2023/02/22 06:11:44;;;;;;;8.60;1.80;;;;;;;6.84;100.00;101138.69;5034668;28;20454;-68
2023/02/22 06:14:10;;;;;;;9.70;2.10;;;;;;;6.81;100.00;101142.69;5034498;28;20461;-68
2023/02/22 06:16:37;;;;;;;7.23;1.80;;;;;;;6.82;100.00;101144.34;5034480;28;20586;-69
2023/02/22 06:19:03;;;;;;;8.63;1.40;;;;;;;6.87;100.00;101146.25;5034218;28;20443;-67
2023/02/22 06:21:30;;;;;;;10.90;1.60;;;;;;;6.91;100.00;101147.34;5034144;28;20882;-68
2023/02/22 06:23:58;;;;;;;8.93;1.97;;;;;;;6.88;100.00;101138.97;5034083;28;20485;-69
2023/02/22 06:26:24;;;;;;;10.13;2.33;;;;;;;6.85;100.00;101151.06;5034133;28;20999;-69
2023/02/22 06:28:51;;;;;;;7.37;2.43;;;;;;;6.86;100.00;101158.06;5034333;28;20810;-69
2023/02/22 06:31:17;;;;;;;12.50;2.40;;;;;;;7.00;100.00;101144.94;5034242;28;20449;-69
2023/02/22 06:33:44;;;;;;;12.27;2.60;;;;;;;7.08;100.00;101156.03;5034190;28;20470;-69
2023/02/22 06:36:11;;;;;;;10.40;3.10;;;;;;;7.07;100.00;101161.66;5033853;28;20485;-69
2023/02/22 06:38:37;;;;;;;9.20;2.77;;;;;;;7.10;100.00;101163.03;5033931;28;20443;-69
2023/02/22 06:41:05;;;;;;;13.20;1.83;;;;;;;7.16;100.00;101165.47;5033948;28;20447;-69
2023/02/22 06:43:32;;;;;;;9.30;2.00;;;;;;;7.19;100.00;101167.63;5034110;28;20481;-69
2023/02/22 06:45:58;;;;;;;8.77;1.90;;;;;;;7.22;100.00;101163.63;5034053;28;20485;-69
2023/02/22 06:48:25;;;;;;;7.47;2.00;;;;;;;7.21;100.00;101161.97;5033999;28;20449;-69
2023/02/22 06:50:51;;;;;;;6.43;1.63;;;;;;;7.32;100.00;101177.13;5033570;28;20474;-69
2023/02/22 06:53:18;;;;;;;5.70;1.50;;;;;;;7.32;100.00;101169.84;5033509;28;20469;-69
2023/02/22 06:55:45;;;;;;;7.03;1.60;;;;;;;7.31;100.00;101173.63;5033738;28;20497;-69
2023/02/22 06:58:13;;;;;;;16.07;2.13;;;;;;;7.44;100.00;101174.19;5033752;28;20526;-69
2023/02/22 07:00:39;;;;;;;7.23;1.97;;;;;;;7.51;100.00;101172.03;5033709;28;21016;-68
2023/02/22 07:03:06;;;;;;;6.23;1.93;;;;;;;7.53;100.00;101175.31;5033340;28;20467;-68
2023/02/22 07:05:32;;;;;;;8.70;2.03;;;;;;;7.54;100.00;101176.91;5033588;28;20526;-68
2023/02/22 07:08:04;;;;;;;9.97;2.30;;;;;;;7.61;100.00;101176.66;5033611;28;20439;-67
2023/02/22 07:10:32;;;;;;;9.40;1.80;;;;;;;7.63;100.00;101180.72;5033559;28;20431;-67
2023/02/22 07:12:59;;;;;;;9.37;1.90;;;;;;;7.68;100.00;101188.00;5033525;28;20493;-68
2023/02/22 07:15:29;;;;;;;5.93;1.33;;;;;;;7.75;100.00;101183.16;5033417;28;20578;-68
2023/02/22 07:17:56;;;;;;;8.80;2.27;;;;;;;7.77;100.00;101184.50;5033458;28;20428;-68
2023/02/22 07:20:24;;;;;;;13.23;1.80;;;;;;;7.81;100.00;101184.78;5033377;28;20453;-69
2023/02/22 07:22:51;;;;;;;10.10;2.67;;;;;;;7.87;100.00;101186.41;5033256;28;20443;-69
2023/02/22 07:25:18;;;;;;;16.50;2.10;;;;;;;7.92;100.00;101182.91;5033416;28;20423;-70
2023/02/22 07:27:45;;;;;;;10.53;1.90;;;;;;;7.96;100.00;101178.59;5033050;28;20451;-65
2023/02/22 07:30:17;;;;;;;7.20;2.00;;;;;;;8.05;100.00;101182.38;5033310;28;20572;-68
2023/02/22 07:32:45;;;;;;;10.87;2.33;;;;;;;8.10;100.00;101182.38;5033161;28;20415;-69
2023/02/22 07:35:15;;;;;;;10.37;3.07;;;;;;;8.16;100.00;101181.31;5033173;28;20450;-68
2023/02/22 07:37:42;;;;;;;13.23;3.40;;;;;;;8.21;100.00;101183.19;5032922;28;20481;-69
2023/02/22 07:40:09;;;;;;;14.57;4.17;;;;;;;8.29;100.00;101188.06;5032939;28;20436;-69
2023/02/22 07:42:51;;;;;;;23.63;6.03;;;;;;;8.33;100.00;101194.53;5033068;28;20438;-68
2023/02/22 07:45:17;;;;;;;15.30;4.53;;;;;;;8.38;100.00;101194.56;5033193;28;20411;-69
2023/02/22 07:47:47;;;;;;;14.73;3.93;;;;;;;8.41;100.00;101180.53;5033053;28;20450;-68
2023/02/22 07:50:14;;;;;;;17.47;4.20;;;;;;;8.46;100.00;101198.59;5033062;28;20446;-68
2023/02/22 07:52:41;;;;;;;15.77;3.90;;;;;;;8.49;100.00;101190.75;5032648;28;20475;-68
2023/02/22 07:55:07;;;;;;;17.60;5.43;;;;;;;8.54;100.00;101189.94;5033005;28;20443;-68
2023/02/22 07:57:34;;;;;;;13.53;3.47;;;;;;;8.59;100.00;101193.47;5033060;28;20517;-69
2023/02/22 08:00:01;;;;;;;8.37;3.00;;;;;;;8.66;100.00;101195.84;5032935;28;20530;-68
2023/02/22 08:02:28;;;;;;;14.07;3.60;;;;;;;8.71;100.00;101195.84;5032598;28;20449;-68
2023/02/22 08:04:56;;;;;;;17.63;3.10;;;;;;;8.79;100.00;101198.00;5036895;28;20470;-68
2023/02/22 08:07:22;;;;;;;11.20;2.63;;;;;;;8.84;100.00;101191.78;5036897;28;20443;-68
2023/02/22 08:09:49;;;;;;;17.07;2.80;;;;;;;8.93;100.00;101195.53;5036520;28;20819;-68
2023/02/22 08:12:15;;;;;;;8.43;1.97;;;;;;;9.00;100.00;101189.84;5036833;28;20447;-68
2023/02/22 08:14:42;;;;;;;19.83;3.17;;;;;;;9.04;100.00;101189.03;5036672;28;20467;-68
2023/02/22 08:17:09;;;;;;;14.93;3.73;;;;;;;9.08;100.00;101190.09;5036392;28;21023;-68
2023/02/22 08:19:35;;;;;;;21.37;3.53;;;;;;;9.12;100.00;101200.31;5036663;28;20447;-68
2023/02/22 08:22:03;;;;;;;12.60;2.60;;;;;;;9.12;99.76;101195.75;5036646;28;20439;-68
2023/02/22 08:24:31;;;;;;;11.23;2.67;;;;;;;9.16;98.81;101199.50;5036200;28;20475;-69
2023/02/22 08:26:58;;;;;;;16.40;2.50;;;;;;;9.19;97.79;101190.03;5036569;28;20497;-68
2023/02/22 08:29:32;;;;;;;7.40;1.87;;;;;;;9.11;96.89;101194.13;5036231;28;20441;-68
2023/02/22 08:31:58;;;;;;;13.20;2.50;;;;;;;9.20;96.17;101191.66;5036792;28;20848;-68
2023/02/22 08:34:25;;;;;;;13.53;2.40;;;;;;;9.22;95.44;101192.19;5036494;28;20482;-68
2023/02/22 08:36:52;;;;;;;11.53;3.00;;;;;;;9.25;95.21;101189.75;5036332;28;20482;-68
2023/02/22 08:39:20;;;;;;;17.17;2.30;;;;;;;9.27;94.91;101192.97;5036075;28;20443;-68
2023/02/22 08:41:47;;;;;;;6.63;2.07;;;;;;;9.33;94.65;101191.84;5036345;28;20439;-66
2023/02/22 08:44:13;;;;;;;6.00;1.57;;;;;;;9.38;93.69;101193.72;5035872;28;21031;-67
2023/02/22 08:46:40;;;;;;;6.70;2.10;;;;;;;9.44;93.86;101191.81;5036217;28;20439;-69
2023/02/22 08:49:07;;;;;;;15.03;1.83;;;;;;;9.49;93.34;101195.31;5036176;28;20447;-68
2023/02/22 08:51:35;;;;;;;11.13;2.60;;;;;;;9.52;92.72;101192.06;5035845;28;20998;-68
2023/02/22 08:54:02;;;;;;;12.80;2.20;;;;;;;9.55;92.47;101188.78;5036010;28;20470;-68
2023/02/22 08:56:32;;;;;;;9.73;2.30;;;;;;;9.60;92.15;101186.03;5035948;28;20486;-68
2023/02/22 08:58:58;;;;;;;13.00;2.50;;;;;;;9.62;93.08;101185.78;5036071;28;20530;-68
2023/02/22 09:01:26;;;;;;;6.83;1.80;;;;;;;9.68;92.61;101192.75;5035636;28;21012;-68
2023/02/22 09:03:54;;;;;;;11.47;2.57;;;;;;;9.72;92.04;101193.81;5035796;28;20554;-67
2023/02/22 09:06:21;;;;;;;9.10;1.70;;;;;;;9.79;91.59;101188.91;5035828;28;20447;-67
2023/02/22 09:08:48;;;;;;;14.83;1.93;;;;;;;9.85;90.30;101187.78;5035777;28;20810;-68
2023/02/22 09:11:15;;;;;;;9.07;1.80;;;;;;;9.82;89.06;101192.94;5035811;28;20451;-68
2023/02/22 09:13:42;;;;;;;8.20;1.87;;;;;;;9.88;89.30;101186.41;5035414;28;20494;-68
2023/02/22 09:16:09;;;;;;;7.03;2.17;;;;;;;9.92;88.95;101186.66;5035648;28;20497;-68
2023/02/22 09:18:36;;;;;;;19.20;2.40;;;;;;;9.88;88.50;101182.91;5035315;28;20530;-68
2023/02/22 09:21:02;;;;;;;11.70;1.83;;;;;;;9.99;88.13;101187.94;5035644;28;20434;-68
2023/02/22 09:23:29;;;;;;;8.53;1.53;;;;;;;10.02;86.91;101192.00;5035149;28;20918;-68
2023/02/22 09:25:57;;;;;;;8.00;1.60;;;;;;;10.07;87.32;101189.25;5035526;28;20445;-68
2023/02/22 09:28:25;;;;;;;10.13;1.90;;;;;;;10.07;88.29;101190.06;5035337;28;20439;-68
2023/02/22 09:30:53;;;;;;;7.90;2.40;;;;;;;10.20;88.47;101194.03;5035409;28;20469;-68
2023/02/22 09:33:21;;;;;;;16.90;2.63;;;;;;;10.30;88.30;101193.97;5035578;28;20473;-68
2023/02/22 09:35:49;;;;;;;16.97;3.10;;;;;;;10.20;85.61;101179.69;5034952;28;20490;-68
2023/02/22 09:38:19;;;;;;;17.23;3.03;;;;;;;10.31;86.03;101184.75;5035047;28;20490;-68
2023/02/22 09:40:50;;;;;;;9.00;2.60;;;;;;;10.38;86.26;101180.91;5035228;28;20445;-68
2023/02/22 09:43:34;;;;;;;11.83;2.43;;;;;;;10.51;85.52;101174.81;5035165;28;20909;-68
2023/02/22 09:46:21;;;;;;;7.07;2.20;;;;;;;10.44;84.58;101180.56;5035228;28;20419;-68
2023/02/22 09:48:58;;;;;;;8.40;2.53;;;;;;;10.50;83.83;101175.94;5035111;28;20459;-68
2023/02/22 09:51:27;;;;;;;24.37;3.10;;;;;;;10.65;83.70;101183.09;5034965;28;20438;-68
2023/02/22 09:53:58;;;;;;;12.40;2.50;;;;;;;10.70;82.65;101178.41;5035024;28;20784;-68
2023/02/22 09:56:26;;;;;;;7.30;2.10;;;;;;;10.75;82.89;101172.94;5034885;28;20499;-68
2023/02/22 09:58:56;;;;;;;26.50;3.43;;;;;;;10.79;81.54;101173.97;5034881;28;20451;-68
2023/02/22 10:01:28;;;;;;;8.07;1.90;;;;;;;10.87;80.91;101167.13;5034506;28;20964;-68
2023/02/22 10:04:03;;;;;;;6.87;1.80;;;;;;;10.96;79.85;101167.28;5034684;28;20459;-68
2023/02/22 10:06:33;;;;;;;6.83;2.30;;;;;;;10.95;79.55;101168.41;5034768;28;20415;-68
2023/02/22 10:09:06;;;;;;;14.83;2.97;;;;;;;11.10;78.98;101158.16;5034756;28;20905;-68
2023/02/22 10:11:51;;;;;;;9.97;2.17;;;;;;;11.23;77.73;101164.78;5034635;28;20428;-68
2023/02/22 10:14:42;;;;;;;16.90;2.87;;;;;;;11.35;78.17;101164.38;5034574;28;20893;-69
2023/02/22 10:17:21;;;;;;;9.93;2.40;;;;;;;11.44;76.91;101162.63;5022923;28;20489;-68
2023/02/22 10:20:03;;;;;;;9.73;1.87;;;;;;;11.47;76.04;101159.34;5034437;28;20423;-69
2023/02/22 10:22:42;;;;;;;11.73;2.67;;;;;;;11.45;75.67;101152.56;5034458;28;20482;-69
2023/02/22 10:25:13;;;;;;;10.90;2.80;;;;;;;11.40;74.87;101163.50;5034484;28;20438;-68
2023/02/22 10:27:46;;;;;;;8.90;2.87;;;;;;;11.25;73.99;101165.31;5034131;28;20423;-68
2023/02/22 10:30:19;;;;;;;11.40;2.47;;;;;;;11.31;74.18;101169.56;5034355;28;20435;-68
2023/02/22 10:32:51;;;;;;;7.90;1.60;;;;;;;11.26;72.00;101160.69;5033923;28;20876;-69
2023/02/22 10:35:23;;;;;;;22.87;2.40;;;;;;;11.22;74.52;101160.47;5034206;28;20443;-68
2023/02/22 10:37:54;;;;;;;7.17;2.00;;;;;;;11.13;72.91;101155.97;5034147;28;20549;-69
2023/02/22 10:40:30;;;;;;;13.17;2.00;;;;;;;11.10;72.40;101154.66;5033867;28;20972;-68
2023/02/22 10:42:59;;;;;;;6.83;1.67;;;;;;;11.03;74.67;101156.94;5033757;28;20990;-68
2023/02/22 10:45:28;;;;;;;9.10;2.20;;;;;;;11.07;73.00;101149.81;5034009;28;20446;-68
2023/02/22 10:47:59;;;;;;;17.47;2.40;;;;;;;11.06;72.70;101148.19;5033959;28;20523;-68
2023/02/22 10:50:28;;;;;;;7.80;2.10;;;;;;;11.03;74.92;101151.50;5033991;28;20427;-68
2023/02/22 10:52:55;;;;;;;13.70;2.30;;;;;;;11.03;74.19;101148.78;5033633;28;20463;-68
2023/02/22 10:55:22;;;;;;;10.40;1.50;;;;;;;11.10;75.00;101151.94;5033747;28;20828;-68
2023/02/22 10:57:51;;;;;;;12.67;2.40;;;;;;;11.19;75.96;101143.97;5033342;28;20487;-68
2023/02/22 11:00:25;;;;;;;16.40;2.73;;;;;;;11.28;76.06;101153.88;5033724;28;20443;-69
2023/02/22 11:02:53;;;;;;;10.83;2.30;;;;;;;11.25;75.50;101153.66;5033697;28;20459;-68
2023/02/22 11:05:30;;;;;;;8.73;1.57;;;;;;;11.29;75.57;101144.66;5033679;28;20451;-67
2023/02/22 11:08:24;;;;;;;9.87;2.10;;;;;;;11.35;75.39;101151.63;5033035;28;20835;-68
2023/02/22 11:10:53;;;;;;;10.50;1.87;;;;;;;11.28;74.78;101145.72;5033676;28;20430;-68
2023/02/22 11:13:26;;;;;;;8.93;1.50;;;;;;;11.15;76.19;101145.66;5033463;28;20998;-68
2023/02/22 11:15:54;;;;;;;7.30;2.00;;;;;;;11.18;74.84;101145.06;5033764;28;20428;-69
2023/02/22 11:18:26;;;;;;;6.63;1.47;;;;;;;11.17;75.37;101140.75;5033679;28;20537;-69
2023/02/22 11:21:03;;;;;;;14.10;1.87;;;;;;;11.15;75.67;101138.31;5033987;28;20439;-68
2023/02/22 11:23:30;;;;;;;8.80;1.43;;;;;;;11.09;75.26;101140.28;5033005;28;20483;-69
2023/02/22 11:26:04;;;;;;;5.93;1.50;;;;;;;11.05;74.42;101141.16;5033200;28;20442;-68
2023/02/22 11:28:31;;;;;;;9.97;2.10;;;;;;;11.07;74.38;101144.41;5033767;28;20428;-69
2023/02/22 11:31:10;;;;;;;12.77;1.50;;;;;;;11.09;74.32;101139.50;5033419;28;20470;-70
2023/02/22 11:33:38;;;;;;;10.93;2.17;;;;;;;11.05;74.96;101131.13;5033116;28;20980;-68